Letohatchee, Alabama
Current Conditions -  °F | °C
As of 1:53 PM on Friday 24 Oct 2014 (Local Time) from KMGM Reporting Station
Clear Clear  
Wind Chill: 77°   Ceiling: Unl
Heat Index: 78°   Visibility: 10mi
Dew Point: 42°   Wind: 9mph
Humidity: 29%   Direction: 310°NW
Pressure: 30.02"   Gusts: NA
Location:  32.13°N, 86.49°W
Report Text: KMGM 241853Z 31008KT 10SM CLR 25/06 A3002 RMK AO2 SLP163 T02500056
Loading
Personal Weather Stations






























Interactive Weather Map
Tropical Storm Tracking
New forecast layout! Learn more

10-Day Weather Forecast

Advertisements
Track Severe Weather on mobile